createdAt,value
2023-03-12T00:02:23.804Z,5.82
2023-03-12T00:04:52.749Z,5.93
2023-03-12T00:07:19.443Z,6.28
2023-03-12T00:09:46.178Z,7.75
2023-03-12T00:12:13.073Z,8.48
2023-03-12T00:14:41.994Z,5.65
2023-03-12T00:17:11.276Z,7.00
2023-03-12T00:19:40.475Z,7.43
2023-03-12T00:22:07.152Z,5.15
2023-03-12T00:24:33.842Z,7.35
2023-03-12T00:27:00.546Z,9.18
2023-03-12T00:29:29.724Z,6.63
2023-03-12T00:31:56.413Z,6.57
2023-03-12T00:34:25.217Z,7.32
2023-03-12T00:36:51.902Z,6.25
2023-03-12T00:39:18.587Z,8.32
2023-03-12T00:41:45.473Z,7.43
2023-03-12T00:44:12.192Z,7.13
2023-03-12T00:46:38.899Z,7.65
2023-03-12T00:49:05.608Z,7.85
2023-03-12T00:51:32.280Z,6.72
2023-03-12T00:53:58.943Z,5.60
2023-03-12T00:56:25.852Z,6.10
2023-03-12T00:58:54.788Z,5.70
2023-03-12T01:01:21.538Z,5.38
2023-03-12T01:03:49.615Z,7.85
2023-03-12T01:06:16.312Z,5.43
2023-03-12T01:08:43.064Z,7.25
2023-03-12T01:11:14.501Z,5.90
2023-03-12T01:13:41.507Z,5.68
2023-03-12T01:16:08.311Z,4.85
2023-03-12T01:18:35.115Z,5.65
2023-03-12T01:21:02.320Z,7.78
2023-03-12T01:23:34.777Z,7.65
2023-03-12T01:26:03.586Z,12.70
2023-03-12T01:28:30.297Z,8.07
2023-03-12T01:30:57.025Z,4.45
2023-03-12T01:33:23.744Z,6.65
2023-03-12T01:35:50.875Z,5.22
2023-03-12T01:38:22.290Z,5.03
2023-03-12T01:40:51.475Z,5.25
2023-03-12T01:43:33.131Z,5.18
2023-03-12T01:46:18.387Z,5.38
2023-03-12T01:48:51.463Z,7.07
2023-03-12T01:51:19.344Z,5.13
2023-03-12T01:53:49.463Z,7.60
2023-03-12T01:58:48.050Z,3.90
2023-03-12T02:01:17.885Z,10.10
2023-03-12T02:03:52.078Z,5.25
2023-03-12T02:06:25.297Z,4.60
2023-03-12T02:08:52.482Z,8.02
2023-03-12T02:11:21.715Z,11.32
2023-03-12T02:13:48.378Z,6.32
2023-03-12T02:16:17.993Z,6.82
2023-03-12T02:18:45.760Z,5.43
2023-03-12T02:21:33.640Z,4.90
2023-03-12T02:24:22.076Z,4.93
2023-03-12T02:26:51.399Z,6.00
2023-03-12T02:29:18.408Z,6.53
2023-03-12T02:31:54.858Z,6.63
2023-03-12T02:34:21.638Z,5.25
2023-03-12T02:36:50.877Z,5.20
2023-03-12T02:39:17.640Z,4.18
2023-03-12T02:41:57.681Z,5.30
2023-03-12T02:44:27.639Z,4.50
2023-03-12T02:46:59.655Z,7.93
2023-03-12T02:49:31.378Z,8.32
2023-03-12T02:51:58.237Z,4.57
2023-03-12T02:54:28.483Z,4.55
2023-03-12T02:56:57.792Z,7.68
2023-03-12T02:59:27.959Z,3.17
2023-03-12T03:04:23.701Z,3.33
2023-03-12T03:06:51.214Z,4.63
2023-03-12T03:09:22.348Z,3.72
2023-03-12T03:11:51.461Z,2.20
2023-03-12T03:14:19.113Z,4.40
2023-03-12T03:16:45.896Z,3.13
2023-03-12T03:19:12.704Z,3.88
2023-03-12T03:21:39.435Z,5.82
2023-03-12T03:24:06.440Z,6.88
2023-03-12T03:26:33.227Z,8.50
2023-03-12T03:28:59.959Z,4.97
2023-03-12T03:31:27.308Z,6.30
2023-03-12T03:33:56.669Z,7.30
2023-03-12T03:36:23.430Z,3.83
2023-03-12T03:38:54.485Z,3.92
2023-03-12T03:41:22.998Z,4.10
2023-03-12T03:43:54.315Z,6.10
2023-03-12T03:46:21.043Z,4.30
2023-03-12T03:48:47.844Z,2.45
2023-03-12T03:51:19.944Z,6.70
2023-03-12T03:53:46.643Z,5.32
2023-03-12T03:56:17.271Z,4.13
2023-03-12T03:58:44.365Z,4.22
2023-03-12T04:01:13.452Z,3.45
2023-03-12T04:03:42.503Z,4.00
2023-03-12T04:06:09.667Z,3.63
2023-03-12T04:08:40.436Z,2.92
2023-03-12T04:11:20.961Z,4.70
2023-03-12T04:13:48.353Z,2.80
2023-03-12T04:16:15.943Z,4.18
2023-03-12T04:18:43.665Z,4.72
2023-03-12T04:21:12.306Z,4.20
2023-03-12T04:23:39.754Z,6.80
2023-03-12T04:26:08.933Z,5.90
2023-03-12T04:28:37.755Z,2.70
2023-03-12T04:31:07.164Z,7.10
2023-03-12T04:33:37.969Z,2.80
2023-03-12T04:36:06.129Z,7.78
2023-03-12T04:38:33.890Z,3.78
2023-03-12T04:41:05.855Z,5.30
2023-03-12T04:43:33.088Z,3.53
2023-03-12T04:46:02.733Z,4.53
2023-03-12T04:48:31.654Z,5.72
2023-03-12T04:50:58.547Z,6.20
2023-03-12T04:53:25.370Z,6.55
2023-03-12T04:55:52.675Z,3.58
2023-03-12T04:58:22.156Z,6.15
2023-03-12T05:00:49.857Z,5.25
2023-03-12T05:03:18.105Z,5.70
2023-03-12T05:05:45.132Z,3.20
2023-03-12T05:08:11.847Z,5.28
2023-03-12T05:10:38.618Z,2.00
2023-03-12T05:13:12.382Z,3.30
2023-03-12T05:15:41.316Z,2.88
2023-03-12T05:18:07.991Z,2.17
2023-03-12T05:20:37.055Z,4.05
2023-03-12T05:23:03.734Z,4.20
2023-03-12T05:25:30.582Z,7.25
2023-03-12T05:27:57.305Z,4.63
2023-03-12T05:30:24.017Z,3.30
2023-03-12T05:32:50.750Z,3.22
2023-03-12T05:35:19.786Z,3.78
2023-03-12T05:37:46.502Z,4.35
2023-03-12T05:40:13.749Z,4.82
2023-03-12T05:42:40.453Z,5.00
2023-03-12T05:45:07.790Z,3.58
2023-03-12T05:47:34.444Z,3.17
2023-03-12T05:50:01.198Z,2.65
2023-03-12T05:52:27.918Z,6.47
2023-03-12T05:54:57.138Z,4.32
2023-03-12T05:57:23.865Z,3.67
2023-03-12T05:59:50.624Z,4.88
2023-03-12T06:02:17.530Z,3.97
2023-03-12T06:04:44.246Z,4.28
2023-03-12T06:07:10.918Z,7.80
2023-03-12T06:09:39.851Z,5.22
2023-03-12T06:12:08.820Z,3.60
2023-03-12T06:14:35.617Z,4.68
2023-03-12T06:17:02.561Z,4.50
2023-03-12T06:19:31.436Z,3.42
2023-03-12T06:21:58.291Z,5.47
2023-03-12T06:24:27.187Z,4.03
2023-03-12T06:26:53.924Z,4.47
2023-03-12T06:29:20.575Z,3.63
2023-03-12T06:31:52.214Z,3.83
2023-03-12T06:34:18.986Z,6.00
2023-03-12T06:36:47.789Z,8.82
2023-03-12T06:39:19.086Z,5.70
2023-03-12T06:41:45.773Z,6.28
2023-03-12T06:44:12.469Z,5.03
2023-03-12T06:46:42.789Z,4.30
2023-03-12T06:49:09.744Z,4.78
2023-03-12T06:51:38.945Z,7.68
2023-03-12T06:54:05.758Z,6.28
2023-03-12T06:56:32.464Z,6.65
2023-03-12T06:58:59.174Z,4.18
2023-03-12T07:01:25.971Z,3.95
2023-03-12T07:03:52.830Z,6.65
2023-03-12T07:06:21.915Z,5.63
2023-03-12T07:08:48.964Z,7.25
2023-03-12T07:11:17.569Z,3.88
2023-03-12T07:13:44.354Z,6.20
2023-03-12T07:16:13.995Z,6.00
2023-03-12T07:18:43.017Z,8.20
2023-03-12T07:21:09.697Z,7.28
2023-03-12T07:23:36.997Z,3.95
2023-03-12T07:26:05.482Z,4.07
2023-03-12T07:28:34.722Z,3.95
2023-03-12T07:31:07.037Z,5.70
2023-03-12T07:33:34.240Z,3.28
2023-03-12T07:36:01.123Z,5.00
2023-03-12T07:38:27.949Z,4.07
2023-03-12T07:40:57.135Z,4.55
2023-03-12T07:43:26.449Z,6.80
2023-03-12T07:45:53.151Z,5.50
2023-03-12T07:48:20.211Z,8.07
2023-03-12T07:50:47.758Z,3.33
2023-03-12T07:53:14.522Z,4.10
2023-03-12T07:55:47.069Z,6.82
2023-03-12T07:58:15.579Z,3.92
2023-03-12T08:00:42.479Z,5.72
2023-03-12T08:03:12.151Z,8.30
2023-03-12T08:05:43.861Z,5.82
2023-03-12T08:08:10.587Z,4.60
2023-03-12T08:10:37.558Z,7.50
2023-03-12T08:13:04.284Z,3.72
2023-03-12T08:15:31.019Z,3.63
2023-03-12T08:18:00.850Z,5.55
2023-03-12T08:20:32.365Z,5.80
2023-03-12T08:23:01.254Z,6.65
2023-03-12T08:25:30.639Z,5.35
2023-03-12T08:27:57.310Z,7.53
2023-03-12T08:30:24.013Z,3.30
2023-03-12T08:32:50.769Z,6.45
2023-03-12T08:35:17.573Z,6.65
2023-03-12T08:37:44.285Z,3.28
2023-03-12T08:40:14.290Z,6.07
2023-03-12T08:42:44.339Z,5.50
2023-03-12T08:47:41.805Z,7.82
2023-03-12T08:50:10.437Z,8.00
2023-03-12T08:52:37.132Z,4.18
2023-03-12T08:55:05.938Z,6.40
2023-03-12T08:57:32.662Z,4.50
2023-03-12T08:59:59.396Z,6.57
2023-03-12T09:02:30.651Z,5.03
2023-03-12T09:04:59.833Z,5.22
2023-03-12T09:07:26.620Z,7.45
2023-03-12T09:09:55.621Z,9.27
2023-03-12T09:12:22.416Z,7.80
2023-03-12T09:15:02.911Z,3.65
2023-03-12T09:17:32.737Z,4.13
2023-03-12T09:20:00.070Z,8.80
2023-03-12T09:22:29.551Z,5.85
2023-03-12T09:24:56.217Z,6.65
2023-03-12T09:27:25.397Z,4.95
2023-03-12T09:30:00.641Z,5.97
2023-03-12T09:32:28.508Z,4.75
2023-03-12T09:34:57.928Z,6.65
2023-03-12T09:37:24.713Z,3.97
2023-03-12T09:39:52.809Z,8.52
2023-03-12T09:42:30.431Z,5.22
2023-03-12T09:45:00.236Z,5.80
2023-03-12T09:47:37.699Z,8.40
2023-03-12T09:50:24.754Z,4.63
2023-03-12T09:53:02.003Z,4.30
2023-03-12T09:55:37.231Z,6.50
2023-03-12T09:58:04.037Z,5.53
2023-03-12T10:00:37.468Z,6.80
2023-03-12T10:03:29.019Z,4.47
2023-03-12T10:06:13.008Z,9.57
2023-03-12T10:08:55.074Z,5.47
2023-03-12T10:11:42.036Z,6.18
2023-03-12T10:14:51.701Z,6.70
2023-03-12T10:18:02.366Z,4.55
2023-03-12T10:20:48.128Z,5.75
2023-03-12T10:24:05.351Z,5.22
2023-03-12T10:26:42.985Z,6.45
2023-03-12T10:29:24.133Z,5.35
2023-03-12T10:31:59.268Z,4.25
2023-03-12T10:34:39.154Z,5.00
2023-03-12T10:37:16.554Z,3.63
2023-03-12T10:39:43.864Z,6.10
2023-03-12T10:42:23.372Z,5.28
2023-03-12T10:44:58.969Z,5.75
2023-03-12T10:47:43.171Z,5.78
2023-03-12T10:50:26.978Z,5.90
2023-03-12T10:53:29.645Z,7.68
2023-03-12T10:56:01.634Z,9.63
2023-03-12T10:58:33.399Z,6.78
2023-03-12T11:01:02.671Z,5.65
2023-03-12T11:03:29.649Z,4.77
2023-03-12T11:06:01.752Z,6.00
2023-03-12T11:08:32.703Z,5.10
2023-03-12T11:11:00.980Z,4.70
2023-03-12T11:13:27.682Z,5.32
2023-03-12T11:15:56.572Z,5.80
2023-03-12T11:18:32.273Z,4.80
2023-03-12T11:21:19.606Z,5.93
2023-03-12T11:23:57.083Z,6.82
2023-03-12T11:26:28.675Z,6.13
2023-03-12T11:29:04.934Z,5.78
2023-03-12T11:31:37.544Z,4.13
2023-03-12T11:34:08.092Z,3.88
2023-03-12T11:37:09.685Z,4.28
2023-03-12T11:40:06.392Z,5.05
2023-03-12T11:43:01.376Z,6.70
2023-03-12T11:45:35.615Z,6.72
2023-03-12T11:48:08.555Z,4.88
2023-03-12T11:50:55.961Z,5.47
2023-03-12T11:53:45.327Z,4.50
2023-03-12T11:56:14.428Z,5.00
2023-03-12T11:59:10.347Z,7.17
2023-03-12T12:01:55.917Z,5.30
2023-03-12T12:04:33.971Z,4.68
2023-03-12T12:07:25.193Z,4.60
2023-03-12T12:10:02.145Z,2.42
2023-03-12T12:12:40.779Z,3.50
2023-03-12T12:15:20.742Z,5.13
2023-03-12T12:17:58.542Z,8.57
2023-03-12T12:20:28.841Z,3.33
2023-03-12T12:23:08.156Z,3.92
2023-03-12T12:25:55.457Z,2.40
2023-03-12T12:28:46.994Z,3.25
2023-03-12T12:31:22.812Z,1.20
2023-03-12T12:33:56.267Z,3.53
2023-03-12T12:36:27.380Z,1.60
2023-03-12T12:39:01.381Z,1.70
2023-03-12T12:41:34.647Z,1.83
2023-03-12T12:44:14.855Z,1.45
2023-03-12T12:46:50.140Z,2.70
2023-03-12T12:49:38.527Z,3.58
2023-03-12T12:52:08.534Z,3.53
2023-03-12T12:54:50.560Z,2.58
2023-03-12T12:57:29.399Z,1.67
2023-03-12T13:00:22.204Z,3.65
2023-03-12T13:02:52.552Z,2.13
2023-03-12T13:05:19.764Z,4.35
2023-03-12T13:07:46.528Z,2.47
2023-03-12T13:10:35.139Z,3.90
2023-03-12T13:13:19.009Z,2.90
2023-03-12T13:15:48.431Z,2.30
2023-03-12T13:18:31.229Z,2.65
2023-03-12T13:21:19.384Z,2.25
2023-03-12T13:23:53.918Z,5.22
2023-03-12T13:26:26.177Z,3.60
2023-03-12T13:28:56.735Z,2.40
2023-03-12T13:31:29.534Z,2.03
2023-03-12T13:36:29.299Z,4.30
2023-03-12T13:39:18.258Z,3.20
2023-03-12T13:41:47.105Z,3.37
2023-03-12T13:44:23.021Z,7.97
2023-03-12T13:47:16.165Z,4.40
2023-03-12T13:49:47.508Z,2.70
2023-03-12T13:52:14.339Z,4.05
2023-03-12T13:54:47.483Z,2.80
2023-03-12T13:57:36.806Z,4.55
2023-03-12T14:00:32.092Z,5.53
2023-03-12T14:03:09.978Z,6.15
2023-03-12T14:06:05.190Z,1.70
2023-03-12T14:09:09.578Z,6.18
2023-03-12T14:11:44.500Z,4.05
2023-03-12T14:14:55.641Z,3.13
2023-03-12T14:17:28.124Z,7.25
2023-03-12T14:20:11.316Z,2.83
2023-03-12T14:22:41.267Z,5.72
2023-03-12T14:25:36.255Z,4.25
2023-03-12T14:28:10.780Z,5.95
2023-03-12T14:31:01.948Z,5.18
2023-03-12T14:33:42.319Z,6.10
2023-03-12T14:36:25.625Z,6.00
2023-03-12T14:39:00.096Z,7.57
2023-03-12T14:41:31.371Z,8.68
2023-03-12T14:44:25.802Z,4.88
2023-03-12T14:47:07.310Z,7.07
2023-03-12T14:49:43.846Z,4.13
2023-03-12T14:52:13.146Z,5.82
2023-03-12T14:54:40.121Z,6.50
2023-03-12T14:57:12.912Z,6.45
2023-03-12T14:59:39.842Z,7.57
2023-03-12T15:02:18.756Z,4.82
2023-03-12T15:04:47.241Z,5.63
2023-03-12T15:07:18.282Z,7.65
2023-03-12T15:09:48.040Z,5.85
2023-03-12T15:12:21.720Z,4.93
2023-03-12T15:14:51.684Z,6.32
2023-03-12T15:17:20.703Z,5.38
2023-03-12T15:19:48.802Z,7.50
2023-03-12T15:22:18.460Z,4.95
2023-03-12T15:24:47.900Z,7.50
2023-03-12T15:27:29.307Z,13.07
2023-03-12T15:29:57.955Z,5.70
2023-03-12T15:32:26.037Z,8.88
2023-03-12T15:34:59.096Z,7.65
2023-03-12T15:37:33.865Z,8.85
2023-03-12T15:40:06.201Z,13.10
2023-03-12T15:42:40.070Z,7.95
2023-03-12T15:45:36.655Z,11.85
2023-03-12T15:48:14.851Z,10.70
2023-03-12T15:50:47.941Z,10.05
2023-03-12T15:53:14.925Z,9.95
2023-03-12T15:55:41.801Z,7.82
2023-03-12T15:58:36.050Z,13.00
2023-03-12T16:01:14.624Z,15.30
2023-03-12T16:03:45.802Z,11.23
2023-03-12T16:06:19.619Z,12.88
2023-03-12T16:08:55.229Z,17.23
2023-03-12T16:11:30.756Z,12.32
2023-03-12T16:14:13.871Z,24.60
2023-03-12T16:16:40.743Z,33.20
2023-03-12T16:19:29.859Z,17.38
2023-03-12T16:21:56.690Z,15.27
2023-03-12T16:24:25.869Z,19.60
2023-03-12T16:26:58.050Z,15.73
2023-03-12T16:29:35.262Z,10.73
2023-03-12T16:32:09.426Z,17.27
2023-03-12T16:34:38.513Z,11.98
2023-03-12T16:37:05.259Z,13.83
2023-03-12T16:39:34.352Z,14.27
2023-03-12T16:42:01.829Z,13.20
2023-03-12T16:44:34.274Z,11.32
2023-03-12T16:47:03.744Z,16.50
2023-03-12T16:49:30.481Z,11.52
2023-03-12T16:51:59.882Z,11.23
2023-03-12T16:54:26.638Z,14.43
2023-03-12T16:56:53.624Z,14.98
2023-03-12T16:59:31.685Z,13.88
2023-03-12T17:01:58.705Z,12.05
2023-03-12T17:04:25.518Z,13.02
2023-03-12T17:06:52.274Z,14.68
2023-03-12T17:09:22.273Z,14.85
2023-03-12T17:11:51.342Z,14.30
2023-03-12T17:14:22.248Z,16.93
2023-03-12T17:16:49.332Z,15.10
2023-03-12T17:19:16.919Z,13.95
2023-03-12T17:21:44.278Z,11.65
2023-03-12T17:24:14.188Z,11.93
2023-03-12T17:29:08.160Z,9.60
2023-03-12T17:31:37.410Z,11.65
2023-03-12T17:34:07.221Z,11.63
2023-03-12T17:36:36.990Z,11.32
2023-03-12T17:39:07.185Z,12.88
2023-03-12T17:41:34.015Z,15.15
2023-03-12T17:44:01.609Z,11.13
2023-03-12T17:46:30.033Z,16.15
2023-03-12T17:48:59.307Z,13.95
2023-03-12T17:51:28.580Z,16.33
2023-03-12T17:53:55.434Z,16.50
2023-03-12T17:56:22.226Z,14.63
2023-03-12T17:58:48.982Z,15.52
2023-03-12T18:01:16.610Z,11.30
2023-03-12T18:03:50.040Z,10.70
2023-03-12T18:06:19.961Z,14.80
2023-03-12T18:08:46.754Z,13.27
2023-03-12T18:11:13.456Z,12.75
2023-03-12T18:13:42.714Z,11.32
2023-03-12T18:16:09.587Z,13.52
2023-03-12T18:18:36.340Z,7.88
2023-03-12T18:21:03.213Z,10.75
2023-03-12T18:23:29.909Z,12.40
2023-03-12T18:25:56.666Z,13.85
2023-03-12T18:28:25.670Z,11.73
2023-03-12T18:30:54.772Z,12.77
2023-03-12T18:33:24.019Z,17.87
2023-03-12T18:35:55.721Z,10.55
2023-03-12T18:38:22.649Z,10.27
2023-03-12T18:40:50.439Z,10.90
2023-03-12T18:43:21.710Z,11.85
2023-03-12T18:45:50.104Z,7.65
2023-03-12T18:48:16.946Z,13.40
2023-03-12T18:50:46.042Z,9.73
2023-03-12T18:53:15.363Z,13.93
2023-03-12T18:55:49.729Z,8.63
2023-03-12T18:58:18.883Z,21.70
2023-03-12T19:00:50.240Z,11.43
2023-03-12T19:03:19.385Z,9.63
2023-03-12T19:05:46.333Z,9.68
2023-03-12T19:08:20.710Z,12.27
2023-03-12T19:10:55.212Z,13.41
2023-03-12T19:13:22.010Z,9.23
2023-03-12T19:15:48.853Z,11.40
2023-03-12T19:18:15.656Z,12.05
2023-03-12T19:20:42.336Z,11.43
2023-03-12T19:23:09.098Z,11.15
2023-03-12T19:25:35.799Z,11.50
2023-03-12T19:28:02.463Z,10.23
2023-03-12T19:30:30.643Z,14.75
2023-03-12T19:32:57.426Z,13.32
2023-03-12T19:35:24.293Z,12.18
2023-03-12T19:37:51.161Z,11.07
2023-03-12T19:40:18.041Z,10.98
2023-03-12T19:42:44.813Z,10.02
2023-03-12T19:45:14.646Z,8.55
2023-03-12T19:47:41.417Z,11.55
2023-03-12T19:50:10.310Z,8.52
2023-03-12T19:52:37.386Z,13.77
2023-03-12T19:55:06.784Z,11.70
2023-03-12T19:57:36.112Z,18.58
2023-03-12T20:00:07.026Z,11.35
2023-03-12T20:02:33.843Z,13.68
2023-03-12T20:05:02.737Z,10.65
2023-03-12T20:07:29.451Z,14.45
2023-03-12T20:09:56.569Z,12.93
2023-03-12T20:12:28.385Z,13.38
2023-03-12T20:14:55.133Z,12.05
2023-03-12T20:17:24.273Z,17.17
2023-03-12T20:19:53.450Z,9.17
2023-03-12T20:22:20.735Z,8.43
2023-03-12T20:24:47.715Z,11.40
2023-03-12T20:27:14.472Z,13.57
2023-03-12T20:29:43.321Z,14.88
2023-03-12T20:32:12.308Z,10.57
2023-03-12T20:34:39.073Z,15.30
2023-03-12T20:37:05.748Z,11.43
2023-03-12T20:39:32.634Z,15.75
2023-03-12T20:41:59.398Z,8.50
2023-03-12T20:44:28.572Z,8.48
2023-03-12T20:46:55.374Z,13.32
2023-03-12T20:49:26.564Z,14.38
2023-03-12T20:51:53.351Z,14.02
2023-03-12T20:54:20.054Z,11.48
2023-03-12T20:56:46.988Z,10.05
2023-03-12T20:59:13.852Z,11.45
2023-03-12T21:01:40.871Z,9.02
2023-03-12T21:04:07.610Z,15.07
2023-03-12T21:06:34.398Z,11.45
2023-03-12T21:09:03.351Z,12.13
2023-03-12T21:11:31.300Z,11.88
2023-03-12T21:13:58.017Z,13.70
2023-03-12T21:16:24.814Z,12.63
2023-03-12T21:18:56.347Z,13.05
2023-03-12T21:21:23.861Z,15.00
2023-03-12T21:23:52.920Z,12.10
2023-03-12T21:26:19.941Z,12.87
2023-03-12T21:28:46.684Z,10.80
2023-03-12T21:31:16.171Z,12.63
2023-03-12T21:33:43.524Z,15.10
2023-03-12T21:36:14.168Z,9.60
2023-03-12T21:38:43.027Z,10.32
2023-03-12T21:41:12.190Z,9.70
2023-03-12T21:43:42.209Z,9.27
2023-03-12T21:46:10.873Z,17.17
2023-03-12T21:48:38.336Z,10.88
2023-03-12T21:51:10.581Z,13.75
2023-03-12T21:53:39.589Z,10.20
2023-03-12T21:56:07.844Z,12.18
2023-03-12T21:58:37.451Z,15.98
2023-03-12T22:01:08.430Z,12.43
2023-03-12T22:03:36.186Z,14.20
2023-03-12T22:06:12.596Z,12.70
2023-03-12T22:08:39.860Z,11.18
2023-03-12T22:11:07.518Z,13.50
2023-03-12T22:13:34.320Z,10.02
2023-03-12T22:16:07.603Z,10.68
2023-03-12T22:18:38.994Z,8.27
2023-03-12T22:21:15.087Z,17.85
2023-03-12T22:23:41.956Z,12.93
2023-03-12T22:26:09.215Z,10.13
2023-03-12T22:28:38.379Z,12.68
2023-03-12T22:31:08.022Z,15.55
2023-03-12T22:33:36.380Z,10.93
2023-03-12T22:36:11.960Z,9.55
2023-03-12T22:38:44.607Z,15.40
2023-03-12T22:41:22.725Z,13.85
2023-03-12T22:43:54.257Z,13.85
2023-03-12T22:46:22.928Z,13.57
2023-03-12T22:48:56.798Z,15.55
2023-03-12T22:51:24.056Z,11.75
2023-03-12T22:53:50.799Z,19.73
2023-03-12T22:56:17.535Z,14.35
2023-03-12T22:58:44.480Z,13.65
2023-03-12T23:01:13.998Z,13.20
2023-03-12T23:03:42.440Z,13.63
2023-03-12T23:06:15.364Z,12.95
2023-03-12T23:08:42.430Z,8.73
2023-03-12T23:11:10.554Z,14.88
2023-03-12T23:13:40.255Z,15.95
2023-03-12T23:16:10.137Z,10.10
2023-03-12T23:21:08.488Z,10.05
2023-03-12T23:23:44.873Z,14.38
2023-03-12T23:26:20.667Z,12.80
2023-03-12T23:28:47.807Z,11.75
2023-03-12T23:31:15.868Z,9.10
2023-03-12T23:33:42.719Z,14.05
2023-03-12T23:36:13.229Z,11.20
2023-03-12T23:38:40.062Z,8.55
2023-03-12T23:41:11.151Z,10.38
2023-03-12T23:43:37.879Z,11.30
2023-03-12T23:46:06.494Z,14.35
2023-03-12T23:48:37.262Z,4.95
2023-03-12T23:51:11.284Z,14.27
2023-03-12T23:53:39.930Z,14.23
2023-03-12T23:56:11.932Z,9.90
2023-03-12T23:58:41.782Z,11.30
